Time;durP1;ratioP1;P1;durP2;ratioP2;P2;SDS_P1;SDS_P2;PMS_P1;PMS_P2;Temp;Humidity;BMP_temperature;BMP_pressure;BME280_temperature;BME280_humidity;BME280_pressure;Samples;Min_cycle;Max_cycle;Signal;HPM_P1;HPM_P2
2023/04/24 00:01:14;;;;;;;16.98;9.88;;;;;;;;;;5135797;27;20060;-74
2023/04/24 00:03:41;;;;;;;17.30;10.35;;;;;;;;;;5135971;27;20167;-75
2023/04/24 00:06:07;;;;;;;14.27;9.73;;;;;;;;;;5135885;27;20023;-77
2023/04/24 00:08:36;;;;;;;16.33;10.52;;;;;;;;;;5135908;27;20129;-76
2023/04/24 00:11:01;;;;;;;14.80;9.25;;;;;;;;;;5135967;27;20098;-77
2023/04/24 00:13:28;;;;;;;16.10;10.32;;;;;;;;;;5135897;27;20058;-76
2023/04/24 00:15:54;;;;;;;15.77;9.48;;;;;;;;;;5135898;27;20076;-77
2023/04/24 00:18:20;;;;;;;15.60;9.50;;;;;;;;;;5135766;27;20088;-77
2023/04/24 00:20:46;;;;;;;14.45;9.65;;;;;;;;;;5135172;27;20481;-72
2023/04/24 00:23:12;;;;;;;17.38;10.32;;;;;;;;;;5134503;27;20034;-76
2023/04/24 00:25:37;;;;;;;17.42;9.57;;;;;;;;;;5135565;27;20072;-77
2023/04/24 00:28:03;;;;;;;15.50;9.77;;;;;;;;;;5135468;27;20023;-77
2023/04/24 00:30:28;;;;;;;15.90;9.40;;;;;;;;;;5135542;27;20026;-77
2023/04/24 00:32:54;;;;;;;16.85;10.23;;;;;;;;;;5134895;27;20463;-76
2023/04/24 00:35:19;;;;;;;12.93;8.90;;;;;;;;;;5134767;27;20050;-77
2023/04/24 00:37:45;;;;;;;15.45;9.68;;;;;;;;;;5135246;27;20019;-76
2023/04/24 00:40:11;;;;;;;16.25;10.35;;;;;;;;;;5135237;27;20422;-76
2023/04/24 00:42:37;;;;;;;14.38;9.70;;;;;;;;;;5135221;27;20095;-77
2023/04/24 00:45:03;;;;;;;13.52;9.23;;;;;;;;;;5134800;27;20084;-76
2023/04/24 00:47:30;;;;;;;15.73;9.50;;;;;;;;;;5135297;27;20034;-77
2023/04/24 00:49:55;;;;;;;16.60;9.77;;;;;;;;;;5134737;27;20084;-76
2023/04/24 00:52:24;;;;;;;15.07;9.43;;;;;;;;;;5135218;27;20019;-76
2023/04/24 00:54:49;;;;;;;14.85;9.25;;;;;;;;;;5134986;27;20347;-77
2023/04/24 00:57:15;;;;;;;13.32;8.75;;;;;;;;;;5134724;27;20114;-77
2023/04/24 00:59:41;;;;;;;13.75;9.00;;;;;;;;;;5134886;27;20023;-77
2023/04/24 01:02:09;;;;;;;20.55;9.95;;;;;;;;;;5134848;27;20027;-77
2023/04/24 01:04:35;;;;;;;16.25;9.13;;;;;;;;;;5134870;27;20027;-77
2023/04/24 01:07:00;;;;;;;11.73;8.52;;;;;;;;;;5134838;27;20061;-76
2023/04/24 01:09:26;;;;;;;14.55;9.65;;;;;;;;;;5134934;27;20027;-77
2023/04/24 01:11:52;;;;;;;17.48;8.75;;;;;;;;;;5134650;27;20023;-76
2023/04/24 01:14:18;;;;;;;15.23;8.50;;;;;;;;;;5134485;27;20108;-68
2023/04/24 01:16:43;;;;;;;12.65;8.25;;;;;;;;;;5134340;27;20064;-76
2023/04/24 01:19:10;;;;;;;19.20;9.02;;;;;;;;;;5134224;27;20050;-76
2023/04/24 01:21:37;;;;;;;13.32;8.52;;;;;;;;;;5134429;27;20023;-77
2023/04/24 01:24:04;;;;;;;13.20;8.55;;;;;;;;;;5134794;27;20079;-76
2023/04/24 01:26:29;;;;;;;13.68;7.90;;;;;;;;;;5134203;27;20115;-76
2023/04/24 01:28:55;;;;;;;11.48;7.93;;;;;;;;;;5134335;27;20064;-77
2023/04/24 01:31:21;;;;;;;15.75;8.15;;;;;;;;;;5133698;27;20035;-71
2023/04/24 01:33:47;;;;;;;12.57;7.95;;;;;;;;;;5133712;27;20088;-76
2023/04/24 01:36:14;;;;;;;12.48;8.30;;;;;;;;;;5133828;27;20027;-77
2023/04/24 01:38:39;;;;;;;12.55;8.35;;;;;;;;;;5134138;27;20023;-76
2023/04/24 01:41:05;;;;;;;11.60;7.82;;;;;;;;;;5134256;27;20537;-77
2023/04/24 01:43:30;;;;;;;13.85;7.97;;;;;;;;;;5134079;27;20019;-77
2023/04/24 01:45:55;;;;;;;11.63;7.80;;;;;;;;;;5134111;27;20023;-77
2023/04/24 01:48:22;;;;;;;12.32;8.20;;;;;;;;;;5134234;27;20112;-77
2023/04/24 01:50:47;;;;;;;14.50;8.30;;;;;;;;;;5134178;27;20023;-77
2023/04/24 01:53:13;;;;;;;11.75;8.48;;;;;;;;;;5134252;27;20096;-76
2023/04/24 01:55:38;;;;;;;14.15;8.30;;;;;;;;;;5133728;27;20147;-77
2023/04/24 01:58:04;;;;;;;11.77;8.20;;;;;;;;;;5134109;28;20076;-76
2023/04/24 02:00:29;;;;;;;11.52;7.80;;;;;;;;;;5133935;27;20023;-77
2023/04/24 02:02:54;;;;;;;12.38;8.18;;;;;;;;;;5134054;27;20377;-77
2023/04/24 02:05:20;;;;;;;12.05;8.07;;;;;;;;;;5134127;27;20381;-77
2023/04/24 02:07:45;;;;;;;10.98;7.47;;;;;;;;;;5134105;28;20023;-77
2023/04/24 02:10:11;;;;;;;11.88;8.18;;;;;;;;;;5134136;27;20072;-77
2023/04/24 02:12:37;;;;;;;10.90;8.38;;;;;;;;;;5132670;28;20385;-76
2023/04/24 02:15:03;;;;;;;11.05;8.38;;;;;;;;;;5133631;27;20038;-77
2023/04/24 02:17:30;;;;;;;14.05;9.45;;;;;;;;;;5134159;27;20034;-77
2023/04/24 02:19:56;;;;;;;23.42;11.35;;;;;;;;;;5134287;27;20374;-77
2023/04/24 02:22:21;;;;;;;17.25;11.80;;;;;;;;;;5134000;27;20023;-77
2023/04/24 02:24:46;;;;;;;17.30;12.07;;;;;;;;;;5134186;27;20019;-76
2023/04/24 02:27:12;;;;;;;17.73;13.00;;;;;;;;;;5134150;28;20023;-78
2023/04/24 02:29:37;;;;;;;22.25;14.18;;;;;;;;;;5133570;27;20050;-77
2023/04/24 02:32:03;;;;;;;22.13;14.45;;;;;;;;;;5133214;27;20482;-78
2023/04/24 02:34:28;;;;;;;25.73;15.20;;;;;;;;;;5134381;27;20064;-78
2023/04/24 02:36:54;;;;;;;19.35;13.07;;;;;;;;;;5136364;27;20074;-75
2023/04/24 02:39:20;;;;;;;25.80;15.13;;;;;;;;;;5137844;27;20096;-77
2023/04/24 02:41:45;;;;;;;26.88;17.13;;;;;;;;;;5136387;27;20497;-77
2023/04/24 02:44:11;;;;;;;18.85;14.57;;;;;;;;;;5135015;27;20027;-78
2023/04/24 02:46:36;;;;;;;17.83;12.20;;;;;;;;;;5136261;27;20042;-77
2023/04/24 02:49:02;;;;;;;16.38;11.68;;;;;;;;;;5142210;27;20027;-78
2023/04/24 02:51:27;;;;;;;16.38;11.52;;;;;;;;;;5139488;27;20023;-78
2023/04/24 02:53:53;;;;;;;15.85;11.55;;;;;;;;;;5140118;27;20027;-79
2023/04/24 02:56:18;;;;;;;19.67;12.52;;;;;;;;;;5140509;27;20381;-78
2023/04/24 02:58:44;;;;;;;19.25;13.15;;;;;;;;;;5139371;27;20091;-77
2023/04/24 03:01:10;;;;;;;21.58;13.93;;;;;;;;;;5143958;27;20350;-78
2023/04/24 03:03:36;;;;;;;20.88;14.57;;;;;;;;;;5145937;27;20019;-76
2023/04/24 03:06:01;;;;;;;21.42;13.90;;;;;;;;;;5140394;27;20031;-77
2023/04/24 03:08:27;;;;;;;24.80;13.82;;;;;;;;;;5140638;27;20065;-78
2023/04/24 03:10:52;;;;;;;24.05;15.00;;;;;;;;;;5140327;27;20015;-75
2023/04/24 03:13:18;;;;;;;22.63;14.68;;;;;;;;;;5139704;27;20038;-79
2023/04/24 03:15:44;;;;;;;20.33;14.07;;;;;;;;;;5141291;27;20485;-76
2023/04/24 03:18:10;;;;;;;19.17;13.45;;;;;;;;;;5138295;27;20135;-77
2023/04/24 03:20:37;;;;;;;19.92;12.88;;;;;;;;;;5143624;27;20047;-78
2023/04/24 03:23:02;;;;;;;25.58;15.25;;;;;;;;;;5142997;27;20119;-76
2023/04/24 03:25:29;;;;;;;21.40;14.68;;;;;;;;;;5142905;27;20070;-78
2023/04/24 03:27:54;;;;;;;23.33;15.50;;;;;;;;;;5146549;27;20428;-78
2023/04/24 03:30:20;;;;;;;25.73;16.60;;;;;;;;;;5146118;27;20054;-77
2023/04/24 03:32:45;;;;;;;34.90;20.23;;;;;;;;;;5148910;27;20028;-78
2023/04/24 03:35:11;;;;;;;30.38;17.60;;;;;;;;;;5147925;27;20023;-77
2023/04/24 03:37:36;;;;;;;30.02;18.00;;;;;;;;;;5149400;27;20030;-75
2023/04/24 03:40:02;;;;;;;26.45;16.67;;;;;;;;;;5149924;27;20023;-74
2023/04/24 03:42:27;;;;;;;26.42;15.48;;;;;;;;;;5148737;27;20449;-77
2023/04/24 03:44:53;;;;;;;23.40;14.65;;;;;;;;;;5146765;27;20072;-76
2023/04/24 03:47:19;;;;;;;22.85;14.45;;;;;;;;;;5148370;27;20086;-74
2023/04/24 03:49:44;;;;;;;24.13;15.68;;;;;;;;;;5148125;27;20019;-78
2023/04/24 03:52:10;;;;;;;24.55;15.18;;;;;;;;;;5145017;27;20023;-76
2023/04/24 03:54:35;;;;;;;23.88;15.10;;;;;;;;;;5143540;27;20023;-77
2023/04/24 03:57:01;;;;;;;21.30;14.00;;;;;;;;;;5139020;27;20141;-77
2023/04/24 03:59:26;;;;;;;24.85;16.55;;;;;;;;;;5143480;27;20019;-77
2023/04/24 04:01:52;;;;;;;23.25;15.45;;;;;;;;;;5142627;27;20019;-74
2023/04/24 04:04:17;;;;;;;23.73;15.68;;;;;;;;;;5139577;27;20076;-75
2023/04/24 04:06:43;;;;;;;17.98;13.23;;;;;;;;;;5136354;27;20048;-68
2023/04/24 04:09:09;;;;;;;19.63;14.05;;;;;;;;;;5136225;27;20022;-70
2023/04/24 04:11:35;;;;;;;18.25;13.05;;;;;;;;;;5136335;27;20442;-71
2023/04/24 04:14:01;;;;;;;18.45;12.45;;;;;;;;;;5136037;27;20084;-74
2023/04/24 04:16:26;;;;;;;19.13;12.32;;;;;;;;;;5138266;27;20070;-67
2023/04/24 04:18:51;;;;;;;22.48;13.90;;;;;;;;;;5138414;27;20106;-69
2023/04/24 04:21:17;;;;;;;19.38;13.60;;;;;;;;;;5137344;27;20462;-77
2023/04/24 04:23:42;;;;;;;19.52;13.50;;;;;;;;;;5136520;27;20076;-73
2023/04/24 04:26:08;;;;;;;20.85;13.43;;;;;;;;;;5136156;27;20019;-76
2023/04/24 04:28:34;;;;;;;16.42;12.95;;;;;;;;;;5136212;27;20023;-70
2023/04/24 04:31:00;;;;;;;21.52;15.73;;;;;;;;;;5140400;27;20422;-76
2023/04/24 04:33:26;;;;;;;26.48;17.67;;;;;;;;;;5140961;27;20063;-71
2023/04/24 04:35:52;;;;;;;28.63;21.25;;;;;;;;;;5140007;27;20103;-74
2023/04/24 04:38:18;;;;;;;34.65;24.58;;;;;;;;;;5140221;27;20023;-73
2023/04/24 04:40:44;;;;;;;45.58;32.83;;;;;;;;;;5140242;27;20457;-77
2023/04/24 04:43:10;;;;;;;47.60;35.90;;;;;;;;;;5138407;27;20034;-75
2023/04/24 04:45:38;;;;;;;46.58;35.50;;;;;;;;;;5138623;27;20019;-77
2023/04/24 04:48:04;;;;;;;40.72;30.92;;;;;;;;;;5139041;27;20490;-76
2023/04/24 04:50:30;;;;;;;41.03;31.45;;;;;;;;;;5137447;27;20035;-76
2023/04/24 04:52:55;;;;;;;41.08;32.08;;;;;;;;;;5140819;27;20474;-71
2023/04/24 04:55:21;;;;;;;35.83;27.80;;;;;;;;;;5140579;27;20038;-69
2023/04/24 04:57:46;;;;;;;26.20;20.98;;;;;;;;;;5139595;27;20019;-72
2023/04/24 05:00:12;;;;;;;24.10;15.98;;;;;;;;;;5138307;27;20019;-74
2023/04/24 05:02:39;;;;;;;24.40;18.77;;;;;;;;;;5135848;27;20102;-76
2023/04/24 05:05:05;;;;;;;25.08;18.55;;;;;;;;;;5135295;27;20023;-76
2023/04/24 05:07:31;;;;;;;26.25;18.60;;;;;;;;;;5135328;27;20076;-74
2023/04/24 05:09:56;;;;;;;25.38;17.65;;;;;;;;;;5134404;27;20023;-78
2023/04/24 05:12:22;;;;;;;23.23;17.20;;;;;;;;;;5135297;27;20080;-78
2023/04/24 05:14:47;;;;;;;21.77;16.15;;;;;;;;;;5135427;27;20465;-72
2023/04/24 05:17:12;;;;;;;20.02;15.98;;;;;;;;;;5134743;27;20430;-77
2023/04/24 05:19:38;;;;;;;20.25;14.88;;;;;;;;;;5134570;27;20042;-77
2023/04/24 05:22:06;;;;;;;19.10;13.15;;;;;;;;;;5135015;27;20047;-78
2023/04/24 05:24:35;;;;;;;15.63;11.75;;;;;;;;;;5134642;27;20065;-78
2023/04/24 05:27:02;;;;;;;15.35;10.75;;;;;;;;;;5134934;27;20081;-78
2023/04/24 05:29:27;;;;;;;15.63;11.75;;;;;;;;;;5134966;27;20023;-77
2023/04/24 05:31:53;;;;;;;13.15;10.43;;;;;;;;;;5134464;27;20031;-78
2023/04/24 05:34:18;;;;;;;15.05;10.45;;;;;;;;;;5134650;27;20035;-77
2023/04/24 05:36:43;;;;;;;12.95;9.50;;;;;;;;;;5134396;27;20078;-76
2023/04/24 05:39:09;;;;;;;13.00;9.98;;;;;;;;;;5134119;27;20026;-78
2023/04/24 05:41:34;;;;;;;13.40;9.18;;;;;;;;;;5134808;27;20030;-76
2023/04/24 05:44:00;;;;;;;13.07;9.43;;;;;;;;;;5135065;27;20039;-79
2023/04/24 05:46:25;;;;;;;11.65;9.35;;;;;;;;;;5135117;27;20036;-78
2023/04/24 05:48:51;;;;;;;12.23;9.05;;;;;;;;;;5134791;27;20114;-77
2023/04/24 05:51:16;;;;;;;14.25;9.20;;;;;;;;;;5134738;27;20038;-78
2023/04/24 05:53:42;;;;;;;8.00;5.50;;;;;;;;;;5134380;27;20027;-78
2023/04/24 05:56:07;;;;;;;9.98;8.30;;;;;;;;;;5134085;27;20469;-78
2023/04/24 05:58:33;;;;;;;11.07;8.90;;;;;;;;;;5134078;27;20027;-77
2023/04/24 06:01:00;;;;;;;10.52;9.38;;;;;;;;;;5134303;27;20099;-75
2023/04/24 06:03:27;;;;;;;11.40;8.13;;;;;;;;;;5134243;27;20019;-71
2023/04/24 06:05:52;;;;;;;11.93;8.57;;;;;;;;;;5134247;27;20019;-78
2023/04/24 06:08:18;;;;;;;10.63;8.68;;;;;;;;;;5134199;27;20497;-75
2023/04/24 06:10:43;;;;;;;11.60;8.73;;;;;;;;;;5133771;27;20461;-78
2023/04/24 06:13:08;;;;;;;10.48;8.30;;;;;;;;;;5133414;27;20047;-75
2023/04/24 06:15:34;;;;;;;10.43;8.45;;;;;;;;;;5133409;27;20064;-78
2023/04/24 06:17:59;;;;;;;10.93;7.93;;;;;;;;;;5133721;27;20547;-65
2023/04/24 06:20:25;;;;;;;10.75;8.48;;;;;;;;;;5132441;27;20027;-78
2023/04/24 06:22:51;;;;;;;12.10;8.57;;;;;;;;;;5135625;27;20103;-67
2023/04/24 06:25:16;;;;;;;10.40;7.95;;;;;;;;;;5137865;27;20035;-71
2023/04/24 06:27:41;;;;;;;12.68;8.25;;;;;;;;;;5137567;27;20509;-70
2023/04/24 06:30:08;;;;;;;13.57;8.18;;;;;;;;;;5137281;27;20030;-65
2023/04/24 06:32:33;;;;;;;12.07;7.97;;;;;;;;;;5136951;27;20050;-70
2023/04/24 06:34:59;;;;;;;15.63;8.43;;;;;;;;;;5137440;27;20027;-72
2023/04/24 06:37:24;;;;;;;20.40;8.45;;;;;;;;;;5137206;27;20023;-74
2023/04/24 06:39:50;;;;;;;12.25;8.65;;;;;;;;;;5137425;27;20084;-63
2023/04/24 06:42:15;;;;;;;12.98;8.52;;;;;;;;;;5135354;27;20019;-77
2023/04/24 06:44:41;;;;;;;10.73;7.65;;;;;;;;;;5131149;27;20019;-77
2023/04/24 06:47:10;;;;;;;10.73;7.50;;;;;;;;;;5135722;27;20027;-77
2023/04/24 06:49:36;;;;;;;9.27;7.03;;;;;;;;;;5133411;27;20381;-73
2023/04/24 06:52:02;;;;;;;11.27;7.68;;;;;;;;;;5135492;27;20023;-76
2023/04/24 06:54:29;;;;;;;10.25;8.45;;;;;;;;;;5135471;27;20020;-65
2023/04/24 06:56:55;;;;;;;10.15;7.97;;;;;;;;;;5135596;27;20035;-64
2023/04/24 06:59:20;;;;;;;9.65;7.60;;;;;;;;;;5135654;27;20031;-69
2023/04/24 07:01:46;;;;;;;9.85;7.85;;;;;;;;;;5135720;27;20026;-68
2023/04/24 07:04:12;;;;;;;10.73;7.93;;;;;;;;;;5129688;27;20034;-67
2023/04/24 07:06:38;;;;;;;9.73;7.88;;;;;;;;;;5135068;27;20346;-69
2023/04/24 07:09:04;;;;;;;15.77;8.38;;;;;;;;;;5141214;27;20023;-65
2023/04/24 07:11:30;;;;;;;9.48;7.38;;;;;;;;;;5136059;27;20528;-70
2023/04/24 07:13:55;;;;;;;11.68;8.02;;;;;;;;;;5134688;27;20023;-69
2023/04/24 07:16:21;;;;;;;12.95;8.18;;;;;;;;;;5134803;27;20031;-72
2023/04/24 07:18:47;;;;;;;11.30;7.63;;;;;;;;;;5135055;27;20023;-66
2023/04/24 07:21:12;;;;;;;13.48;7.65;;;;;;;;;;5136621;27;20349;-62
2023/04/24 07:23:38;;;;;;;11.35;7.90;;;;;;;;;;5135456;27;20389;-68
2023/04/24 07:26:03;;;;;;;13.02;8.15;;;;;;;;;;5136051;27;20023;-70
2023/04/24 07:28:30;;;;;;;12.02;7.97;;;;;;;;;;5136152;27;20031;-65
2023/04/24 07:30:57;;;;;;;10.27;7.25;;;;;;;;;;5135899;27;20033;-64
2023/04/24 07:33:22;;;;;;;12.75;7.45;;;;;;;;;;5134613;27;20043;-65
2023/04/24 07:35:48;;;;;;;8.80;6.30;;;;;;;;;;5135323;27;20019;-62
2023/04/24 07:38:14;;;;;;;9.93;6.80;;;;;;;;;;5135752;27;20033;-62
2023/04/24 07:40:39;;;;;;;8.07;6.35;;;;;;;;;;5135687;27;20139;-67
2023/04/24 07:43:05;;;;;;;7.55;6.00;;;;;;;;;;5135694;27;20059;-73
2023/04/24 07:45:31;;;;;;;8.55;6.40;;;;;;;;;;5135806;27;20046;-64
2023/04/24 07:47:56;;;;;;;10.90;8.20;;;;;;;;;;5135508;27;20058;-64
2023/04/24 07:50:22;;;;;;;8.02;6.40;;;;;;;;;;5135492;27;20429;-66
2023/04/24 07:52:47;;;;;;;9.50;6.40;;;;;;;;;;5135501;27;20030;-64
2023/04/24 07:55:13;;;;;;;12.00;7.40;;;;;;;;;;5135148;27;20321;-66
2023/04/24 07:57:39;;;;;;;9.85;5.63;;;;;;;;;;5135256;27;20023;-62
2023/04/24 08:00:05;;;;;;;10.05;5.70;;;;;;;;;;5135388;27;20026;-65
2023/04/24 08:02:31;;;;;;;7.45;5.00;;;;;;;;;;5135274;27;20031;-67
2023/04/24 08:04:56;;;;;;;8.48;5.95;;;;;;;;;;5144825;27;20039;-73
2023/04/24 08:07:23;;;;;;;7.68;4.57;;;;;;;;;;5155641;27;20031;-67
2023/04/24 08:09:49;;;;;;;5.82;4.28;;;;;;;;;;5155540;27;20027;-76
2023/04/24 08:12:14;;;;;;;8.10;4.35;;;;;;;;;;5155854;27;20071;-75
2023/04/24 08:14:40;;;;;;;8.27;4.25;;;;;;;;;;5154652;27;20103;-76
2023/04/24 08:17:05;;;;;;;5.85;3.78;;;;;;;;;;5155728;27;20488;-77
2023/04/24 08:19:31;;;;;;;4.68;4.00;;;;;;;;;;5155588;27;20031;-76
2023/04/24 08:21:56;;;;;;;5.50;4.10;;;;;;;;;;5128774;27;20042;-77
2023/04/24 08:24:22;;;;;;;6.00;4.53;;;;;;;;;;5114409;28;20032;-76
2023/04/24 08:26:50;;;;;;;9.00;4.47;;;;;;;;;;5125324;27;20019;-66
2023/04/24 08:29:16;;;;;;;16.30;5.00;;;;;;;;;;5115460;27;20031;-76
2023/04/24 08:31:41;;;;;;;10.38;4.50;;;;;;;;;;5117707;27;20021;-73
2023/04/24 08:34:07;;;;;;;7.00;3.72;;;;;;;;;;5134247;27;20054;-72
2023/04/24 08:36:32;;;;;;;6.45;4.28;;;;;;;;;;5134489;27;20453;-70
2023/04/24 08:38:58;;;;;;;6.18;4.00;;;;;;;;;;5134763;27;20031;-64
2023/04/24 08:41:25;;;;;;;5.68;3.85;;;;;;;;;;5133592;27;20440;-62
2023/04/24 08:43:51;;;;;;;6.47;3.88;;;;;;;;;;5132059;27;20027;-64
2023/04/24 08:46:19;;;;;;;5.57;3.95;;;;;;;;;;5132724;27;20031;-63
2023/04/24 08:48:45;;;;;;;5.10;3.63;;;;;;;;;;5133121;27;20079;-62
2023/04/24 08:51:11;;;;;;;5.22;3.97;;;;;;;;;;5132923;27;20102;-62
2023/04/24 08:53:37;;;;;;;10.55;4.78;;;;;;;;;;5132715;27;20469;-65
2023/04/24 08:56:03;;;;;;;5.07;3.60;;;;;;;;;;5133176;27;20071;-62
2023/04/24 08:58:29;;;;;;;4.82;3.78;;;;;;;;;;5145075;27;20082;-63
2023/04/24 09:00:55;;;;;;;5.80;3.85;;;;;;;;;;5154579;27;20098;-63
2023/04/24 09:03:21;;;;;;;5.40;3.72;;;;;;;;;;5154706;27;20476;-62
2023/04/24 09:05:49;;;;;;;4.70;3.22;;;;;;;;;;5154541;27;20027;-63
2023/04/24 09:08:17;;;;;;;5.80;3.85;;;;;;;;;;5154782;27;20059;-66
2023/04/24 09:10:43;;;;;;;4.03;3.63;;;;;;;;;;5154863;27;20037;-62
2023/04/24 09:13:10;;;;;;;7.38;3.80;;;;;;;;;;5139567;27;20035;-75
2023/04/24 09:15:36;;;;;;;9.10;4.05;;;;;;;;;;5133823;27;20023;-67
2023/04/24 09:18:02;;;;;;;4.50;3.40;;;;;;;;;;5133875;27;20023;-73
2023/04/24 09:20:27;;;;;;;6.25;3.75;;;;;;;;;;5133812;27;20026;-63
2023/04/24 09:22:57;;;;;;;11.77;4.25;;;;;;;;;;5133689;27;20027;-73
2023/04/24 09:25:30;;;;;;;4.22;3.22;;;;;;;;;;5133708;27;20037;-63
2023/04/24 09:28:01;;;;;;;3.42;2.30;;;;;;;;;;5133440;27;20045;-62
2023/04/24 09:30:26;;;;;;;6.50;2.58;;;;;;;;;;5133818;27;20058;-72
2023/04/24 09:33:15;;;;;;;6.05;3.00;;;;;;;;;;5132934;27;20462;-75
2023/04/24 09:35:43;;;;;;;10.45;2.65;;;;;;;;;;5133299;27;20031;-67
2023/04/24 09:38:08;;;;;;;4.82;3.10;;;;;;;;;;5133834;27;20023;-75
2023/04/24 09:40:34;;;;;;;6.05;2.53;;;;;;;;;;5133398;27;20023;-65
2023/04/24 09:43:02;;;;;;;3.42;2.20;;;;;;;;;;5133035;27;20427;-71
2023/04/24 09:45:34;;;;;;;3.17;2.58;;;;;;;;;;5133115;27;20033;-65
2023/04/24 09:48:00;;;;;;;5.13;2.55;;;;;;;;;;5133157;27;20023;-70
2023/04/24 09:50:25;;;;;;;4.82;2.65;;;;;;;;;;5133423;27;20044;-74
2023/04/24 09:53:05;;;;;;;3.33;2.72;;;;;;;;;;5133145;27;20031;-71
2023/04/24 09:55:31;;;;;;;5.70;2.70;;;;;;;;;;5133309;27;20086;-73
2023/04/24 09:58:00;;;;;;;4.50;2.80;;;;;;;;;;5139456;27;20019;-74
2023/04/24 10:00:30;;;;;;;3.87;2.20;;;;;;;;;;5153799;27;20031;-74
2023/04/24 10:02:59;;;;;;;4.38;2.08;;;;;;;;;;5153889;27;20506;-69
2023/04/24 10:05:32;;;;;;;3.42;2.20;;;;;;;;;;5154213;27;20027;-75
2023/04/24 10:08:02;;;;;;;3.17;2.40;;;;;;;;;;5153814;27;20041;-71
2023/04/24 10:10:28;;;;;;;2.72;2.03;;;;;;;;;;5153696;27;20068;-70
2023/04/24 10:12:54;;;;;;;4.35;2.28;;;;;;;;;;5153888;27;20023;-73
2023/04/24 10:15:21;;;;;;;2.90;2.30;;;;;;;;;;5153792;27;20437;-74
2023/04/24 10:17:53;;;;;;;4.15;2.60;;;;;;;;;;5152325;27;20025;-73
2023/04/24 10:20:21;;;;;;;4.53;2.50;;;;;;;;;;5154059;27;20015;-75
2023/04/24 10:22:52;;;;;;;3.85;2.00;;;;;;;;;;5153920;27;20023;-72
2023/04/24 10:25:22;;;;;;;6.60;3.13;;;;;;;;;;5153661;27;20023;-72
2023/04/24 10:27:50;;;;;;;4.10;2.15;;;;;;;;;;5153104;27;20057;-75
2023/04/24 10:30:17;;;;;;;4.47;2.20;;;;;;;;;;5153784;27;20018;-68
2023/04/24 10:32:42;;;;;;;3.63;2.30;;;;;;;;;;5140781;27;20040;-69
2023/04/24 10:35:09;;;;;;;4.10;2.38;;;;;;;;;;5132857;27;20030;-68
2023/04/24 10:37:40;;;;;;;3.67;2.22;;;;;;;;;;5132876;27;20054;-66
2023/04/24 10:40:08;;;;;;;5.10;2.92;;;;;;;;;;5132810;27;20072;-76
2023/04/24 10:42:34;;;;;;;4.55;2.63;;;;;;;;;;5132533;27;20023;-72
2023/04/24 10:45:04;;;;;;;5.88;2.67;;;;;;;;;;5132958;27;20030;-76
2023/04/24 10:47:39;;;;;;;4.10;2.38;;;;;;;;;;5132839;27;20023;-68
2023/04/24 10:50:10;;;;;;;3.97;2.60;;;;;;;;;;5133130;27;20024;-75
2023/04/24 10:52:53;;;;;;;3.80;2.35;;;;;;;;;;5132687;27;20030;-74
2023/04/24 10:55:46;;;;;;;4.05;2.55;;;;;;;;;;5132998;27;20031;-71
2023/04/24 10:58:12;;;;;;;5.85;2.70;;;;;;;;;;5141354;27;20054;-72
2023/04/24 11:00:40;;;;;;;5.32;2.45;;;;;;;;;;5153467;27;20050;-69
2023/04/24 11:03:24;;;;;;;4.72;3.35;;;;;;;;;;5153696;27;20027;-62
2023/04/24 11:05:55;;;;;;;3.17;2.63;;;;;;;;;;5153448;27;20023;-61
2023/04/24 11:08:21;;;;;;;4.95;1.95;;;;;;;;;;5155522;27;20139;-63
2023/04/24 11:10:55;;;;;;;5.50;2.30;;;;;;;;;;5157284;27;20022;-62
2023/04/24 11:13:48;;;;;;;4.70;1.83;;;;;;;;;;5156997;27;20031;-61
2023/04/24 11:16:15;;;;;;;3.42;1.90;;;;;;;;;;5156702;27;20045;-62
2023/04/24 11:18:45;;;;;;;3.10;2.10;;;;;;;;;;5157125;27;20060;-64
2023/04/24 11:21:17;;;;;;;5.07;2.20;;;;;;;;;;5157041;27;20018;-62
2023/04/24 11:23:42;;;;;;;5.50;2.38;;;;;;;;;;5156725;27;20028;-62
2023/04/24 11:26:32;;;;;;;7.22;1.85;;;;;;;;;;5156700;27;20426;-71
2023/04/24 11:29:07;;;;;;;4.40;2.17;;;;;;;;;;5157050;27;20046;-73
2023/04/24 11:31:40;;;;;;;2.63;1.60;;;;;;;;;;5154324;27;20793;-74
2023/04/24 11:34:14;;;;;;;3.05;1.60;;;;;;;;;;5134481;27;20051;-65
2023/04/24 11:36:42;;;;;;;6.20;1.80;;;;;;;;;;5135855;27;20065;-73
2023/04/24 11:39:08;;;;;;;2.83;1.70;;;;;;;;;;5136023;27;20075;-72
2023/04/24 11:41:34;;;;;;;7.97;1.90;;;;;;;;;;5135619;27;20390;-69
2023/04/24 11:44:02;;;;;;;2.58;1.50;;;;;;;;;;5134863;27;20027;-70
2023/04/24 11:46:29;;;;;;;3.97;1.52;;;;;;;;;;5135661;27;20031;-61
2023/04/24 11:48:56;;;;;;;3.03;1.60;;;;;;;;;;5135799;27;20027;-66
2023/04/24 11:51:26;;;;;;;2.80;1.27;;;;;;;;;;5135586;27;20027;-67
2023/04/24 11:53:53;;;;;;;4.63;1.23;;;;;;;;;;5134175;27;20614;-65
2023/04/24 11:56:20;;;;;;;2.38;1.10;;;;;;;;;;5135608;27;20123;-61
2023/04/24 11:58:47;;;;;;;3.38;1.17;;;;;;;;;;5149027;27;20022;-63
2023/04/24 12:01:13;;;;;;;2.38;1.25;;;;;;;;;;5156338;27;20029;-61
2023/04/24 12:03:39;;;;;;;2.55;1.00;;;;;;;;;;5155852;27;20393;-61
2023/04/24 12:06:09;;;;;;;1.55;0.90;;;;;;;;;;5156335;27;20018;-73
2023/04/24 12:08:34;;;;;;;2.03;1.10;;;;;;;;;;5155954;27;20023;-78
2023/04/24 12:11:01;;;;;;;1.77;1.00;;;;;;;;;;5155704;27;20334;-74
2023/04/24 12:13:26;;;;;;;1.65;1.08;;;;;;;;;;5155968;27;20022;-74
2023/04/24 12:15:52;;;;;;;2.65;1.00;;;;;;;;;;5155552;27;20057;-74
2023/04/24 12:18:18;;;;;;;1.98;1.05;;;;;;;;;;5155775;27;20027;-77
2023/04/24 12:20:43;;;;;;;1.52;0.95;;;;;;;;;;5155954;27;20019;-75
2023/04/24 12:23:08;;;;;;;1.23;1.02;;;;;;;;;;5155824;27;20363;-61
2023/04/24 12:25:34;;;;;;;2.15;1.05;;;;;;;;;;5155545;27;20040;-73
2023/04/24 12:28:02;;;;;;;2.80;1.27;;;;;;;;;;5155207;27;20473;-76
2023/04/24 12:30:29;;;;;;;1.73;1.10;;;;;;;;;;5155520;27;20105;-75
2023/04/24 12:32:57;;;;;;;2.47;1.10;;;;;;;;;;5140854;27;20062;-67
2023/04/24 12:35:29;;;;;;;1.70;1.00;;;;;;;;;;5134190;27;20035;-74
2023/04/24 12:37:54;;;;;;;2.90;1.23;;;;;;;;;;5134741;27;20031;-76
2023/04/24 12:40:21;;;;;;;7.80;1.13;;;;;;;;;;5133183;27;20362;-74
2023/04/24 12:42:49;;;;;;;6.53;1.38;;;;;;;;;;5134566;27;20473;-76
2023/04/24 12:45:16;;;;;;;2.45;0.90;;;;;;;;;;5134664;27;20033;-75
2023/04/24 12:47:42;;;;;;;2.97;1.00;;;;;;;;;;5134346;27;20396;-72
2023/04/24 12:50:10;;;;;;;1.95;1.00;;;;;;;;;;5134483;27;20027;-77
2023/04/24 12:52:36;;;;;;;1.42;0.82;;;;;;;;;;5134285;27;20123;-75
2023/04/24 12:55:03;;;;;;;3.28;1.00;;;;;;;;;;5134043;27;20054;-74
2023/04/24 12:57:29;;;;;;;4.82;1.33;;;;;;;;;;5136382;27;20504;-73
2023/04/24 12:59:56;;;;;;;3.83;1.10;;;;;;;;;;5154716;27;20026;-77
2023/04/24 13:02:23;;;;;;;2.50;1.08;;;;;;;;;;5154933;27;20415;-73
2023/04/24 13:04:49;;;;;;;4.43;1.00;;;;;;;;;;5155031;27;20023;-72
2023/04/24 13:07:16;;;;;;;4.63;1.10;;;;;;;;;;5154653;27;20067;-62
2023/04/24 13:09:43;;;;;;;1.70;0.95;;;;;;;;;;5154884;27;20026;-76
2023/04/24 13:12:09;;;;;;;1.33;0.90;;;;;;;;;;5153670;27;20035;-79
2023/04/24 13:14:35;;;;;;;2.50;0.80;;;;;;;;;;5154922;27;20025;-75
2023/04/24 13:17:00;;;;;;;3.72;1.08;;;;;;;;;;5154541;27;20026;-69
2023/04/24 13:19:27;;;;;;;1.42;1.02;;;;;;;;;;5154458;27;20418;-72
2023/04/24 13:21:53;;;;;;;4.47;1.02;;;;;;;;;;5153948;27;20035;-69
2023/04/24 13:24:19;;;;;;;2.45;1.00;;;;;;;;;;5154500;27;20030;-75
2023/04/24 13:26:45;;;;;;;1.60;1.05;;;;;;;;;;5154569;27;20038;-77
2023/04/24 13:29:10;;;;;;;1.17;0.98;;;;;;;;;;5154485;27;20023;-65
2023/04/24 13:31:36;;;;;;;5.65;1.50;;;;;;;;;;5150728;27;20051;-68
2023/04/24 13:34:02;;;;;;;4.05;0.80;;;;;;;;;;5133426;27;20047;-71
2023/04/24 13:36:28;;;;;;;1.77;0.90;;;;;;;;;;5133074;27;20027;-70
2023/04/24 13:38:53;;;;;;;2.67;0.90;;;;;;;;;;5133530;27;20080;-69
2023/04/24 13:41:19;;;;;;;1.45;0.90;;;;;;;;;;5133495;27;20029;-77
2023/04/24 13:43:44;;;;;;;3.28;1.00;;;;;;;;;;5133520;27;20027;-69
2023/04/24 13:46:10;;;;;;;2.15;0.82;;;;;;;;;;5133640;27;20477;-69
2023/04/24 13:48:35;;;;;;;2.03;0.93;;;;;;;;;;5133362;27;20351;-76
2023/04/24 13:51:01;;;;;;;1.25;0.70;;;;;;;;;;5133262;27;20614;-70
2023/04/24 13:53:26;;;;;;;2.22;0.80;;;;;;;;;;5133408;27;20030;-76
2023/04/24 13:55:52;;;;;;;1.65;0.70;;;;;;;;;;5133091;27;20065;-74
2023/04/24 13:58:17;;;;;;;3.40;0.88;;;;;;;;;;5142793;27;20041;-73
2023/04/24 14:00:43;;;;;;;2.17;0.93;;;;;;;;;;5154148;27;20029;-64
2023/04/24 14:03:08;;;;;;;1.67;0.80;;;;;;;;;;5139983;27;20039;-76
2023/04/24 14:05:33;;;;;;;1.50;0.77;;;;;;;;;;5133140;27;20027;-74
2023/04/24 14:07:59;;;;;;;3.10;0.90;;;;;;;;;;5133005;27;20019;-75
2023/04/24 14:10:25;;;;;;;4.55;1.10;;;;;;;;;;5133330;27;20555;-71
2023/04/24 14:12:51;;;;;;;2.17;1.00;;;;;;;;;;5133202;27;20059;-65
2023/04/24 14:15:16;;;;;;;3.35;1.00;;;;;;;;;;5133158;27;20051;-71
2023/04/24 14:17:42;;;;;;;1.02;0.80;;;;;;;;;;5133013;27;20483;-69
2023/04/24 14:20:08;;;;;;;2.22;0.77;;;;;;;;;;5133135;27;20104;-76
2023/04/24 14:22:34;;;;;;;1.77;0.90;;;;;;;;;;5133079;27;20063;-66
2023/04/24 14:24:59;;;;;;;24.98;1.70;;;;;;;;;;5133206;27;20063;-73
2023/04/24 14:27:26;;;;;;;4.20;0.95;;;;;;;;;;5133044;27;20462;-67
2023/04/24 14:29:51;;;;;;;2.65;1.08;;;;;;;;;;5133090;27;20023;-67